Time;durP1;ratioP1;P1;durP2;ratioP2;P2;SDS_P1;SDS_P2;PMS_P1;PMS_P2;Temp;Humidity;BMP_temperature;BMP_pressure;BME280_temperature;BME280_humidity;BME280_pressure;Samples;Min_cycle;Max_cycle;Signal;HPM_P1;HPM_P2
2022/08/08 00:00:59;;;;;;;1.80;0.50;;;20.70;38.00;;;;;;4962304;28;20065;-43
2022/08/08 00:03:37;;;;;;;0.93;0.47;;;20.70;38.10;;;;;;4966093;28;20058;-45
2022/08/08 00:06:11;;;;;;;0.40;0.30;;;20.60;38.20;;;;;;4961647;28;20470;-46
2022/08/08 00:08:44;;;;;;;0.40;0.35;;;20.60;38.30;;;;;;4964824;28;20051;-45
2022/08/08 00:11:17;;;;;;;0.93;0.43;;;20.60;38.40;;;;;;4962876;28;20078;-43
2022/08/08 00:13:58;;;;;;;0.73;0.30;;;20.50;38.60;;;;;;4959763;28;20059;-48
2022/08/08 00:16:31;;;;;;;1.13;0.60;;;20.50;38.50;;;;;;4962090;28;20415;-43
2022/08/08 00:19:21;;;;;;;1.35;0.40;;;20.50;38.50;;;;;;4964287;28;20054;-46
2022/08/08 00:21:55;;;;;;;0.55;0.43;;;20.40;38.60;;;;;;4961368;28;20408;-46
2022/08/08 00:24:31;;;;;;;0.80;0.40;;;20.40;38.60;;;;;;4963619;28;20415;-46
2022/08/08 00:27:03;;;;;;;0.55;0.45;;;20.40;38.60;;;;;;4961060;28;20054;-44
2022/08/08 00:29:36;;;;;;;0.32;0.30;;;20.30;38.80;;;;;;4960644;28;20062;-46
2022/08/08 00:32:10;;;;;;;1.85;0.38;;;20.20;39.10;;;;;;4964363;28;20061;-44
2022/08/08 00:35:15;;;;;;;0.70;0.40;;;20.20;39.10;;;;;;4959987;28;20061;-46
2022/08/08 00:38:04;;;;;;;0.43;0.30;;;20.10;39.30;;;;;;4964223;28;20058;-47
2022/08/08 00:41:01;;;;;;;1.30;0.60;;;20.10;39.40;;;;;;4958535;28;20419;-45
2022/08/08 00:44:16;;;;;;;1.65;0.70;;;20.10;39.40;;;;;;4959473;28;20081;-44
2022/08/08 00:47:16;;;;;;;0.60;0.50;;;20.00;39.50;;;;;;4905848;29;20588;-45
2022/08/08 00:50:07;;;;;;;0.70;0.40;;;20.00;39.50;;;;;;4902740;29;20055;-43
2022/08/08 00:52:48;;;;;;;0.93;0.43;;;19.90;39.50;;;;;;4954466;28;20502;-46
2022/08/08 00:55:51;;;;;;;1.45;0.57;;;19.90;39.70;;;;;;4962365;28;20054;-44
2022/08/08 00:58:49;;;;;;;1.27;0.50;;;19.80;40.00;;;;;;4962737;28;20059;-45
2022/08/08 01:01:21;;;;;;;1.00;0.55;;;19.80;40.00;;;;;;4961445;28;20062;-48
2022/08/08 01:04:15;;;;;;;3.53;0.70;;;19.80;39.90;;;;;;4956826;28;20058;-44
2022/08/08 01:07:43;;;;;;;1.40;0.47;;;19.70;39.80;;;;;;4922796;28;20070;-47
2022/08/08 01:11:02;;;;;;;0.95;0.47;;;19.60;40.10;;;;;;4960881;28;20066;-45
2022/08/08 01:14:07;;;;;;;1.90;0.60;;;19.60;40.10;;;;;;4941601;28;20053;-48
2022/08/08 01:16:55;;;;;;;1.80;0.60;;;19.50;40.30;;;;;;4963519;28;20061;-45
2022/08/08 01:20:07;;;;;;;1.33;0.60;;;19.50;40.60;;;;;;4963217;28;20054;-44
2022/08/08 01:23:11;;;;;;;0.77;0.60;;;19.50;40.70;;;;;;4943986;28;20431;-44
2022/08/08 01:26:17;;;;;;;1.35;0.50;;;19.40;40.70;;;;;;4960711;28;20050;-46
2022/08/08 01:29:02;;;;;;;1.60;0.68;;;19.40;40.70;;;;;;4959471;28;20046;-45
2022/08/08 01:32:15;;;;;;;1.35;0.57;;;19.30;41.00;;;;;;4962254;28;20058;-46
2022/08/08 01:35:10;;;;;;;0.95;0.65;;;19.30;41.20;;;;;;4962500;28;20435;-44
2022/08/08 01:38:04;;;;;;;2.13;0.80;;;19.30;41.00;;;;;;4963226;28;20051;-47
2022/08/08 01:40:40;;;;;;;1.20;0.65;;;19.20;41.20;;;;;;4955942;28;20055;-44
2022/08/08 01:43:18;;;;;;;2.05;0.80;;;19.20;41.30;;;;;;4961273;28;20054;-43
2022/08/08 01:45:54;;;;;;;1.63;0.70;;;19.20;41.50;;;;;;4960440;28;20054;-45
2022/08/08 01:48:38;;;;;;;0.70;0.70;;;19.10;41.60;;;;;;4963235;28;20050;-43
2022/08/08 01:51:32;;;;;;;2.00;0.80;;;19.10;41.70;;;;;;4959273;28;20059;-46
2022/08/08 01:54:10;;;;;;;1.80;0.98;;;19.10;41.80;;;;;;4963405;28;20054;-44
2022/08/08 01:56:54;;;;;;;1.25;0.60;;;19.10;41.80;;;;;;4961774;28;20054;-45
2022/08/08 01:59:40;;;;;;;1.58;0.80;;;19.00;41.90;;;;;;4958093;28;20123;-49
2022/08/08 02:02:13;;;;;;;1.45;0.57;;;19.00;42.00;;;;;;4961316;28;20050;-45
2022/08/08 02:04:46;;;;;;;1.50;0.67;;;19.00;42.00;;;;;;4961953;28;20062;-48
2022/08/08 02:07:22;;;;;;;0.95;0.70;;;19.00;42.10;;;;;;4963481;28;20059;-45
2022/08/08 02:10:07;;;;;;;1.20;0.65;;;18.90;42.30;;;;;;4959520;28;20078;-45
2022/08/08 02:12:51;;;;;;;1.10;0.65;;;18.90;42.30;;;;;;4961205;28;20058;-45
2022/08/08 02:15:29;;;;;;;1.08;0.80;;;18.90;42.30;;;;;;4962388;28;20438;-47
2022/08/08 02:18:03;;;;;;;1.73;0.90;;;18.90;42.40;;;;;;4963030;28;20058;-43
2022/08/08 02:20:37;;;;;;;1.45;0.95;;;18.80;42.40;;;;;;4962092;28;20047;-45
2022/08/08 02:23:21;;;;;;;1.48;0.80;;;18.80;42.60;;;;;;4961311;28;20051;-44
2022/08/08 02:25:59;;;;;;;1.27;0.75;;;18.80;42.70;;;;;;4960785;28;20055;-45
2022/08/08 02:28:44;;;;;;;3.08;0.73;;;18.70;42.60;;;;;;4961854;28;20050;-44
2022/08/08 02:31:32;;;;;;;1.35;0.80;;;18.70;42.90;;;;;;4959773;28;20061;-47
2022/08/08 02:34:08;;;;;;;1.23;0.85;;;18.70;42.80;;;;;;4963629;28;20065;-44
2022/08/08 02:36:43;;;;;;;0.77;0.60;;;18.60;42.60;;;;;;4962663;28;20065;-45
2022/08/08 02:39:26;;;;;;;1.95;0.98;;;18.60;42.80;;;;;;4959313;28;20051;-45
2022/08/08 02:42:20;;;;;;;2.50;0.80;;;18.60;43.00;;;;;;4959684;28;20055;-44
2022/08/08 02:45:12;;;;;;;3.33;0.80;;;18.60;42.90;;;;;;4961544;28;20055;-45
2022/08/08 02:48:10;;;;;;;0.90;0.65;;;18.50;43.00;;;;;;4966094;28;20473;-46
2022/08/08 02:51:29;;;;;;;1.17;0.80;;;18.50;43.10;;;;;;4964423;28;20054;-46
2022/08/08 02:54:29;;;;;;;1.33;0.80;;;18.50;43.20;;;;;;4964787;28;20047;-44
2022/08/08 02:57:16;;;;;;;1.23;0.82;;;18.50;43.20;;;;;;4967709;28;20059;-48
2022/08/08 03:00:23;;;;;;;1.73;0.90;;;18.40;43.30;;;;;;4945854;28;20051;-44
2022/08/08 03:03:29;;;;;;;1.52;0.90;;;18.40;43.70;;;;;;4966472;28;20058;-46
2022/08/08 03:06:18;;;;;;;0.98;0.73;;;18.40;43.50;;;;;;4962336;28;20491;-46
2022/08/08 03:09:20;;;;;;;1.27;0.73;;;18.40;43.50;;;;;;4966132;28;20051;-45
2022/08/08 03:12:32;;;;;;;3.28;0.90;;;18.30;43.70;;;;;;4964346;28;20062;-46
2022/08/08 03:15:39;;;;;;;1.30;0.88;;;18.30;43.70;;;;;;4964306;28;20883;-47
2022/08/08 03:18:12;;;;;;;2.38;1.10;;;18.30;43.80;;;;;;4905631;29;20523;-48
2022/08/08 03:20:43;;;;;;;2.53;1.20;;;18.30;43.80;;;;;;4902214;29;20055;-49
2022/08/08 03:23:13;;;;;;;1.33;0.95;;;18.20;43.90;;;;;;4931093;28;20487;-49
2022/08/08 03:25:42;;;;;;;1.08;0.98;;;18.20;44.00;;;;;;4962508;28;20058;-45
2022/08/08 03:28:15;;;;;;;4.00;1.10;;;18.20;44.10;;;;;;4963250;28;20054;-44
2022/08/08 03:30:44;;;;;;;2.03;1.23;;;18.10;44.30;;;;;;4961026;28;20057;-45
2022/08/08 03:33:17;;;;;;;1.80;1.27;;;18.10;44.20;;;;;;4965274;28;20054;-44
2022/08/08 03:35:45;;;;;;;3.55;0.98;;;18.00;44.30;;;;;;4962022;28;20055;-49
2022/08/08 03:38:15;;;;;;;2.65;1.45;;;18.00;44.30;;;;;;4966477;28;20062;-48
2022/08/08 03:40:50;;;;;;;1.65;1.17;;;18.00;44.30;;;;;;4963173;28;20054;-44
2022/08/08 03:43:17;;;;;;;2.60;0.93;;;17.90;44.20;;;;;;4963216;28;20058;-44
2022/08/08 03:45:44;;;;;;;1.70;1.10;;;17.90;44.30;;;;;;4963081;28;20423;-45
2022/08/08 03:48:11;;;;;;;1.70;1.10;;;17.80;44.50;;;;;;4963892;28;20057;-49
2022/08/08 03:50:42;;;;;;;4.47;1.30;;;17.80;44.70;;;;;;4963580;28;20422;-46
2022/08/08 03:53:12;;;;;;;2.20;1.35;;;17.70;44.90;;;;;;4964886;28;20054;-44
2022/08/08 03:55:42;;;;;;;2.28;1.45;;;17.70;45.00;;;;;;4963389;28;20062;-45
2022/08/08 03:58:16;;;;;;;2.33;1.23;;;17.70;45.10;;;;;;4962597;28;20061;-45
2022/08/08 04:00:49;;;;;;;2.95;1.70;;;17.60;45.10;;;;;;4963460;28;20050;-47
2022/08/08 04:03:17;;;;;;;3.70;1.10;;;17.60;45.30;;;;;;4963202;28;20061;-47
2022/08/08 04:05:44;;;;;;;2.67;1.27;;;17.60;45.30;;;;;;4964006;28;20085;-49
2022/08/08 04:08:18;;;;;;;6.13;1.83;;;17.60;45.40;;;;;;4962338;28;20047;-44
2022/08/08 04:10:49;;;;;;;1.42;0.98;;;17.60;45.60;;;;;;4961106;28;20054;-45
2022/08/08 04:13:17;;;;;;;2.50;1.13;;;17.50;45.60;;;;;;4961556;28;20051;-44
2022/08/08 04:15:45;;;;;;;2.80;1.13;;;17.50;45.50;;;;;;4964435;28;20058;-44
2022/08/08 04:18:13;;;;;;;2.25;1.50;;;17.50;45.60;;;;;;4961075;28;20434;-45
2022/08/08 04:20:40;;;;;;;3.13;1.33;;;17.50;45.70;;;;;;4960326;28;20051;-45
2022/08/08 04:23:07;;;;;;;2.55;1.30;;;17.50;45.80;;;;;;4960044;28;20055;-45
2022/08/08 04:25:35;;;;;;;2.30;1.40;;;17.50;46.00;;;;;;4960036;28;20051;-47
2022/08/08 04:28:04;;;;;;;1.95;1.40;;;17.40;46.00;;;;;;4959944;28;20062;-43
2022/08/08 04:30:31;;;;;;;3.58;1.77;;;17.40;46.10;;;;;;4959796;28;20603;-46
2022/08/08 04:32:58;;;;;;;3.97;1.80;;;17.40;46.10;;;;;;4964075;28;20062;-47
2022/08/08 04:35:26;;;;;;;5.13;2.08;;;17.40;46.20;;;;;;4962003;28;20054;-47
2022/08/08 04:37:54;;;;;;;6.53;2.00;;;17.40;46.50;;;;;;4963059;28;20116;-45
2022/08/08 04:40:22;;;;;;;3.28;1.67;;;17.40;46.50;;;;;;4958923;28;20051;-43
2022/08/08 04:42:50;;;;;;;4.60;1.40;;;17.40;46.70;;;;;;4960117;28;20050;-44
2022/08/08 04:45:19;;;;;;;4.80;1.90;;;17.40;46.80;;;;;;4960712;28;20415;-45
2022/08/08 04:47:46;;;;;;;2.53;1.73;;;17.40;47.00;;;;;;4964140;28;20053;-45
2022/08/08 04:50:13;;;;;;;3.05;1.60;;;17.40;47.00;;;;;;4958665;28;20472;-46
2022/08/08 04:52:40;;;;;;;2.65;1.70;;;17.40;47.10;;;;;;4960974;28;20058;-49
2022/08/08 04:55:08;;;;;;;4.05;1.70;;;17.40;47.20;;;;;;4960072;28;20059;-46
2022/08/08 04:57:35;;;;;;;2.97;1.95;;;17.40;47.30;;;;;;4962012;28;20403;-44
2022/08/08 05:00:04;;;;;;;2.90;1.30;;;17.40;47.40;;;;;;4960084;28;20051;-44
2022/08/08 05:02:33;;;;;;;1.88;1.38;;;17.40;47.60;;;;;;4960517;28;20529;-44
2022/08/08 05:05:00;;;;;;;3.83;1.92;;;17.40;47.70;;;;;;4961642;28;20054;-45
2022/08/08 05:07:28;;;;;;;3.08;1.75;;;17.40;47.80;;;;;;4963195;28;20065;-46
2022/08/08 05:09:55;;;;;;;2.67;1.50;;;17.40;47.90;;;;;;4959068;28;20055;-43
2022/08/08 05:12:22;;;;;;;3.58;1.63;;;17.40;47.90;;;;;;4964051;28;20058;-46
2022/08/08 05:14:50;;;;;;;2.08;1.67;;;17.50;48.20;;;;;;4964005;28;20505;-46
2022/08/08 05:17:17;;;;;;;2.90;1.52;;;17.50;48.10;;;;;;4962926;28;20062;-44
2022/08/08 05:19:46;;;;;;;3.08;1.50;;;17.50;48.20;;;;;;4960529;28;20047;-45
2022/08/08 05:22:13;;;;;;;2.55;1.50;;;17.50;48.40;;;;;;4962259;28;20055;-48
2022/08/08 05:24:41;;;;;;;2.78;1.60;;;17.50;48.40;;;;;;4960580;28;20059;-45
2022/08/08 05:27:08;;;;;;;3.00;1.52;;;17.60;48.50;;;;;;4958726;28;20089;-44
2022/08/08 05:29:36;;;;;;;8.15;2.50;;;17.60;48.50;;;;;;4958799;28;20058;-48
2022/08/08 05:32:04;;;;;;;6.22;2.88;;;17.60;48.70;;;;;;4960231;28;20495;-44
2022/08/08 05:34:35;;;;;;;3.92;2.53;;;17.60;48.80;;;;;;4962953;28;20062;-44
2022/08/08 05:37:05;;;;;;;3.15;2.00;;;17.60;49.00;;;;;;4962865;28;20495;-46
2022/08/08 05:39:32;;;;;;;3.58;1.35;;;17.70;48.90;;;;;;4960840;28;20147;-47
2022/08/08 05:42:01;;;;;;;2.75;1.35;;;17.60;48.80;;;;;;4960674;28;20059;-44
2022/08/08 05:44:30;;;;;;;4.72;2.13;;;17.70;48.90;;;;;;4959342;28;20051;-45
2022/08/08 05:46:58;;;;;;;5.85;2.10;;;17.70;49.00;;;;;;4957866;28;20061;-48
2022/08/08 05:49:26;;;;;;;3.50;2.13;;;17.80;48.90;;;;;;4957946;28;20054;-46
2022/08/08 05:51:53;;;;;;;2.83;2.00;;;17.80;48.80;;;;;;4959412;28;20439;-43
2022/08/08 05:54:22;;;;;;;5.60;2.75;;;17.80;48.90;;;;;;4956293;28;20051;-42
2022/08/08 05:56:50;;;;;;;6.25;2.40;;;17.90;49.00;;;;;;4958975;28;20058;-45
2022/08/08 05:59:20;;;;;;;4.65;2.22;;;17.90;49.10;;;;;;4955959;28;20054;-47
2022/08/08 06:01:53;;;;;;;5.63;2.60;;;17.90;49.10;;;;;;4953751;28;20058;-44
2022/08/08 06:04:27;;;;;;;4.90;2.60;;;17.90;49.20;;;;;;4956597;28;20054;-43
2022/08/08 06:06:58;;;;;;;5.50;3.15;;;18.00;49.30;;;;;;4962473;28;20057;-47
2022/08/08 06:09:31;;;;;;;6.80;3.42;;;17.90;49.20;;;;;;4961461;28;20062;-44
2022/08/08 06:12:00;;;;;;;5.07;3.40;;;17.90;49.50;;;;;;4956957;28;20069;-45
2022/08/08 06:14:29;;;;;;;6.88;3.95;;;18.00;49.50;;;;;;4958086;28;20055;-43
2022/08/08 06:16:59;;;;;;;6.55;3.90;;;18.00;49.80;;;;;;4957255;28;20069;-45
2022/08/08 06:19:27;;;;;;;16.52;4.43;;;18.10;49.70;;;;;;4959039;28;20054;-44
2022/08/08 06:21:55;;;;;;;11.70;4.32;;;18.20;49.70;;;;;;4955198;28;20050;-46
2022/08/08 06:24:22;;;;;;;8.02;4.40;;;18.20;49.80;;;;;;4958868;28;20057;-45
2022/08/08 06:26:57;;;;;;;7.97;3.85;;;18.30;49.70;;;;;;4961197;28;20059;-44
2022/08/08 06:29:33;;;;;;;6.32;3.53;;;18.30;49.70;;;;;;4959535;28;20546;-43
2022/08/08 06:32:03;;;;;;;6.75;3.88;;;18.40;49.90;;;;;;4957762;28;20074;-44
2022/08/08 06:34:36;;;;;;;7.13;4.72;;;18.40;49.50;;;;;;4961549;28;20407;-43
2022/08/08 06:37:04;;;;;;;6.65;4.15;;;18.50;49.70;;;;;;4962047;28;20066;-46
2022/08/08 06:39:32;;;;;;;8.75;4.65;;;18.50;49.80;;;;;;4961819;28;20054;-47
2022/08/08 06:42:02;;;;;;;6.72;4.53;;;18.60;49.70;;;;;;4962210;28;20059;-43
2022/08/08 06:44:30;;;;;;;8.02;4.72;;;18.60;49.70;;;;;;4961502;28;20073;-45
2022/08/08 06:46:59;;;;;;;8.07;5.38;;;18.60;49.60;;;;;;4960630;28;20054;-45
2022/08/08 06:49:27;;;;;;;13.35;4.88;;;18.70;49.70;;;;;;4960990;28;20050;-43
2022/08/08 06:51:55;;;;;;;8.18;4.20;;;18.80;49.70;;;;;;4958956;28;20062;-44
2022/08/08 06:54:23;;;;;;;8.27;4.25;;;18.80;49.50;;;;;;4961240;28;20047;-43
2022/08/08 06:56:51;;;;;;;5.32;3.88;;;18.80;49.40;;;;;;4963468;28;20055;-45
2022/08/08 06:59:57;;;;;;;5.93;4.13;;;18.90;49.20;;;;;;4959603;28;22088;-43
2022/08/08 07:02:31;;;;;;;10.75;4.80;;;19.00;49.70;;;;;;4957616;28;20081;-46
2022/08/08 07:05:04;;;;;;;6.88;3.88;;;19.10;49.20;;;;;;4960529;28;20059;-43
2022/08/08 07:07:41;;;;;;;6.43;3.45;;;19.10;49.30;;;;;;4959590;28;20502;-48
2022/08/08 07:10:11;;;;;;;10.52;3.92;;;19.20;49.20;;;;;;4960051;28;20057;-44
2022/08/08 07:12:43;;;;;;;8.27;3.90;;;19.20;49.60;;;;;;4961209;28;20434;-46
2022/08/08 07:15:13;;;;;;;8.77;3.63;;;19.30;49.10;;;;;;4959379;28;20058;-45
2022/08/08 07:17:46;;;;;;;7.70;4.13;;;19.40;49.00;;;;;;4958373;28;20065;-43
2022/08/08 07:20:19;;;;;;;14.40;4.50;;;19.40;48.90;;;;;;4960629;28;20479;-43
2022/08/08 07:26:03;;;;;;;8.38;4.25;;;19.50;48.80;;;;;;4920830;29;20604;-43
2022/08/08 07:28:30;;;;;;;6.82;4.45;;;19.60;48.70;;;;;;4916368;29;20051;-45
2022/08/08 07:30:59;;;;;;;5.10;3.75;;;19.60;48.60;;;;;;4917490;29;20044;-46
2022/08/08 07:33:28;;;;;;;7.72;4.40;;;19.70;48.50;;;;;;4922492;29;20058;-43
2022/08/08 07:35:59;;;;;;;9.55;4.00;;;19.70;48.40;;;;;;4922046;29;20078;-47
2022/08/08 07:38:27;;;;;;;5.32;3.53;;;19.70;48.00;;;;;;4922443;29;20704;-48
2022/08/08 07:40:57;;;;;;;6.55;3.67;;;19.80;47.90;;;;;;4919524;29;20443;-45
2022/08/08 07:43:25;;;;;;;7.70;3.58;;;19.90;47.90;;;;;;4931968;28;20055;-46
2022/08/08 07:45:53;;;;;;;7.03;4.03;;;20.00;47.80;;;;;;4961424;28;20055;-45
2022/08/08 07:48:22;;;;;;;5.88;3.53;;;20.00;47.30;;;;;;4961453;28;20047;-43
2022/08/08 07:50:50;;;;;;;7.15;3.60;;;20.10;47.00;;;;;;4962510;28;20054;-45
2022/08/08 07:53:37;;;;;;;7.07;3.80;;;20.10;47.10;;;;;;4964603;28;20054;-46
2022/08/08 07:56:08;;;;;;;8.00;3.42;;;20.20;46.50;;;;;;4965690;28;20387;-44
2022/08/08 07:58:40;;;;;;;4.38;2.58;;;20.30;46.20;;;;;;4962505;28;20073;-48
2022/08/08 08:01:10;;;;;;;4.18;2.35;;;20.40;45.90;;;;;;4963120;28;20506;-45
2022/08/08 08:03:46;;;;;;;3.65;2.42;;;20.40;45.10;;;;;;4964722;28;20058;-45
2022/08/08 08:06:14;;;;;;;4.72;2.78;;;20.50;44.30;;;;;;4966277;28;20065;-45
2022/08/08 08:08:45;;;;;;;8.18;2.92;;;20.50;44.90;;;;;;4964014;28;20050;-44
2022/08/08 08:11:14;;;;;;;5.53;2.90;;;20.60;45.00;;;;;;4963247;28;20544;-45
2022/08/08 08:13:51;;;;;;;4.40;2.55;;;20.70;44.80;;;;;;4964941;28;20058;-44
2022/08/08 08:16:22;;;;;;;4.40;2.60;;;20.70;44.40;;;;;;4965465;28;20062;-43
2022/08/08 08:18:56;;;;;;;6.13;2.63;;;20.80;44.20;;;;;;4962163;28;20059;-46
2022/08/08 08:21:24;;;;;;;;;;;20.90;44.40;;;;;;4961214;28;20047;-48
2022/08/08 08:23:51;;;;;;;6.20;2.90;;;21.00;44.50;;;;;;4963292;28;19930;-44
2022/08/08 08:26:55;;;;;;;4.72;2.50;;;21.10;44.50;;;;;;4967015;28;20055;-45
2022/08/08 08:32:58;;;;;;;3.10;2.00;;;21.20;44.20;;;;;;4928084;28;20059;-43
2022/08/08 08:35:27;;;;;;;4.57;2.00;;;21.40;43.80;;;;;;4965670;28;20510;-54
2022/08/08 08:37:55;;;;;;;3.55;2.20;;;21.40;43.50;;;;;;4962956;28;20063;-45
2022/08/08 08:40:23;;;;;;;3.83;1.70;;;21.40;43.00;;;;;;4961806;28;20067;-47
2022/08/08 08:42:52;;;;;;;4.70;2.17;;;21.50;43.20;;;;;;4962716;28;20054;-47
2022/08/08 08:45:22;;;;;;;4.32;1.50;;;21.60;43.10;;;;;;4961477;28;20058;-44
2022/08/08 08:47:52;;;;;;;4.30;2.40;;;21.70;42.50;;;;;;4966610;28;20062;-46
2022/08/08 08:50:19;;;;;;;1.95;1.52;;;21.80;42.20;;;;;;4962455;28;20054;-46
2022/08/08 08:52:48;;;;;;;4.28;1.70;;;21.90;42.50;;;;;;4963929;28;20062;-46
2022/08/08 08:55:17;;;;;;;6.63;1.70;;;22.00;41.70;;;;;;4964936;28;20047;-44
2022/08/08 08:57:47;;;;;;;2.33;1.50;;;22.00;41.90;;;;;;4964683;28;20088;-48
2022/08/08 09:00:15;;;;;;;11.52;2.00;;;22.10;41.80;;;;;;4962540;28;20062;-47
2022/08/08 09:02:45;;;;;;;4.43;1.70;;;22.20;41.60;;;;;;4961904;28;20050;-45
2022/08/08 09:05:14;;;;;;;6.30;1.88;;;22.20;40.90;;;;;;4963802;28;20061;-46
2022/08/08 09:07:44;;;;;;;1.92;1.33;;;22.40;40.60;;;;;;4964468;28;20077;-45
2022/08/08 09:10:15;;;;;;;5.32;1.95;;;22.40;41.10;;;;;;4960610;28;20074;-48
2022/08/08 09:12:45;;;;;;;2.08;1.52;;;22.50;40.30;;;;;;4955187;28;20054;-47
2022/08/08 09:15:12;;;;;;;4.53;1.73;;;22.60;40.40;;;;;;4954646;28;20414;-44
2022/08/08 09:17:40;;;;;;;8.63;1.70;;;22.70;40.10;;;;;;4954907;28;20330;-45
2022/08/08 09:20:09;;;;;;;4.90;1.60;;;22.70;40.10;;;;;;4954142;28;20066;-46
2022/08/08 09:22:36;;;;;;;2.45;1.40;;;22.80;40.20;;;;;;4952247;28;20054;-44
2022/08/08 09:25:05;;;;;;;3.22;1.63;;;22.90;39.70;;;;;;4958638;28;20058;-44
2022/08/08 09:27:34;;;;;;;3.78;1.80;;;22.90;39.70;;;;;;4956245;28;20059;-47
2022/08/08 09:30:05;;;;;;;3.20;1.52;;;23.00;39.10;;;;;;4957547;28;20055;-48
2022/08/08 09:32:38;;;;;;;3.50;1.38;;;23.10;39.40;;;;;;4958037;28;20047;-47
2022/08/08 09:35:08;;;;;;;5.53;1.50;;;23.20;39.00;;;;;;4961285;28;20054;-46
2022/08/08 09:37:45;;;;;;;2.95;1.42;;;23.30;39.10;;;;;;4960764;28;20054;-46
2022/08/08 09:40:14;;;;;;;2.53;1.40;;;23.40;39.30;;;;;;4956820;28;20073;-44
2022/08/08 09:42:45;;;;;;;5.88;1.70;;;23.50;39.30;;;;;;4951399;28;20058;-46
2022/08/08 09:45:15;;;;;;;2.25;1.30;;;23.50;38.80;;;;;;4959377;28;20507;-45
2022/08/08 09:47:43;;;;;;;1.98;1.30;;;23.60;38.50;;;;;;4960762;28;20447;-44
2022/08/08 09:50:12;;;;;;;3.75;1.73;;;23.70;38.50;;;;;;4958781;28;20055;-51
2022/08/08 09:52:42;;;;;;;3.95;1.35;;;23.80;38.20;;;;;;4960671;28;20054;-44
2022/08/08 09:55:10;;;;;;;3.05;1.35;;;23.90;38.70;;;;;;4962246;28;20058;-46
2022/08/08 09:57:38;;;;;;;2.88;1.40;;;24.00;37.70;;;;;;4962624;28;20514;-49
2022/08/08 10:00:10;;;;;;;6.15;1.80;;;24.10;37.60;;;;;;4960998;28;20419;-52
2022/08/08 10:02:40;;;;;;;2.80;1.40;;;24.10;37.30;;;;;;4963462;28;20189;-48
2022/08/08 10:05:11;;;;;;;2.67;1.52;;;24.20;36.70;;;;;;4961431;28;20086;-43
2022/08/08 10:07:46;;;;;;;3.38;1.60;;;24.30;37.50;;;;;;4963740;28;20082;-44
2022/08/08 10:10:13;;;;;;;9.23;1.25;;;24.40;35.90;;;;;;4960323;28;20070;-46
2022/08/08 10:12:40;;;;;;;4.15;1.13;;;24.50;36.00;;;;;;4958735;28;20050;-46
2022/08/08 10:15:10;;;;;;;1.98;1.00;;;24.50;35.60;;;;;;4962970;28;20066;-46
2022/08/08 10:17:45;;;;;;;6.85;1.13;;;24.60;35.80;;;;;;4959769;28;20066;-43
2022/08/08 10:20:13;;;;;;;2.03;0.73;;;24.70;36.10;;;;;;4961136;28;20078;-44
2022/08/08 10:22:46;;;;;;;4.90;1.58;;;24.80;35.90;;;;;;4963582;28;20055;-50
2022/08/08 10:26:39;;;;;;;3.10;1.08;;;24.90;35.10;;;;;;5060772;28;20216;-45
2022/08/08 10:29:08;;;;;;;1.85;0.80;;;24.90;35.30;;;;;;5057042;28;20056;-42
2022/08/08 10:34:24;;;;;;;4.32;1.17;;;25.10;35.80;;;;;;5055827;28;21370;-43
2022/08/08 10:36:53;;;;;;;2.42;1.00;;;25.20;35.70;;;;;;5053041;28;20045;-43
2022/08/08 10:39:21;;;;;;;1.88;1.00;;;25.20;35.50;;;;;;5057132;28;20053;-43
2022/08/08 10:41:57;;;;;;;1.48;1.20;;;25.30;35.60;;;;;;5049917;28;20404;-43
2022/08/08 10:44:32;;;;;;;2.95;0.93;;;25.40;34.50;;;;;;5048822;28;20052;-43
2022/08/08 10:47:09;;;;;;;1.15;0.90;;;25.40;34.20;;;;;;5034097;28;20511;-48
2022/08/08 10:49:36;;;;;;;2.05;1.02;;;25.50;33.10;;;;;;5037318;28;20053;-50
2022/08/08 10:52:04;;;;;;;3.00;1.00;;;25.50;32.70;;;;;;5033050;28;20044;-47
2022/08/08 10:54:31;;;;;;;1.60;0.80;;;25.60;33.60;;;;;;5036293;28;20056;-45
2022/08/08 10:57:01;;;;;;;1.83;0.98;;;25.60;33.90;;;;;;5053158;28;20052;-51
2022/08/08 10:59:29;;;;;;;5.07;1.30;;;25.70;33.50;;;;;;5050457;28;20064;-45
2022/08/08 11:01:56;;;;;;;3.58;1.00;;;25.70;33.60;;;;;;5051343;28;20067;-45
2022/08/08 11:04:23;;;;;;;2.33;1.15;;;25.80;33.20;;;;;;5051242;28;20060;-51
2022/08/08 11:06:59;;;;;;;4.00;1.02;;;25.90;33.00;;;;;;5052626;28;20420;-47
2022/08/08 11:09:26;;;;;;;4.40;1.23;;;26.00;32.70;;;;;;5047169;28;20432;-45
2022/08/08 11:11:53;;;;;;;4.93;1.38;;;26.00;32.40;;;;;;5046129;28;20742;-43
2022/08/08 11:14:22;;;;;;;1.88;0.98;;;26.00;32.40;;;;;;5056608;28;20076;-46
2022/08/08 11:16:50;;;;;;;1.25;0.80;;;26.00;32.20;;;;;;5043160;28;20053;-46
2022/08/08 11:19:18;;;;;;;2.15;0.90;;;26.10;32.20;;;;;;5046080;28;20057;-45
2022/08/08 11:21:47;;;;;;;3.33;1.10;;;26.20;32.40;;;;;;5044359;28;20060;-41
2022/08/08 11:24:14;;;;;;;1.98;1.10;;;26.20;32.70;;;;;;5048467;28;20108;-43
2022/08/08 11:26:42;;;;;;;3.20;1.08;;;26.30;32.70;;;;;;5075211;28;20048;-46
2022/08/08 11:29:10;;;;;;;4.47;1.00;;;26.30;32.10;;;;;;5070791;28;20052;-43
2022/08/08 11:31:41;;;;;;;3.35;1.02;;;26.40;32.00;;;;;;5057949;28;20492;-48
2022/08/08 11:34:09;;;;;;;5.10;1.00;;;26.40;31.80;;;;;;5062516;28;20052;-45
2022/08/08 11:36:38;;;;;;;1.77;1.17;;;26.40;31.80;;;;;;5057799;28;20055;-43
2022/08/08 11:39:06;;;;;;;7.03;1.13;;;26.50;32.10;;;;;;5044957;28;20055;-42
2022/08/08 11:41:35;;;;;;;1.83;1.10;;;26.50;32.40;;;;;;5052299;28;20048;-46
2022/08/08 11:44:04;;;;;;;4.47;1.20;;;26.60;33.10;;;;;;5060868;28;20071;-41
2022/08/08 11:46:33;;;;;;;5.40;1.20;;;26.60;31.80;;;;;;5055335;28;20040;-45
2022/08/08 11:49:03;;;;;;;1.88;0.90;;;26.70;31.80;;;;;;5053316;28;20052;-41
2022/08/08 11:51:32;;;;;;;1.20;1.10;;;26.70;31.60;;;;;;5043585;28;20056;-43
2022/08/08 11:53:59;;;;;;;1.60;1.23;;;26.70;31.80;;;;;;5060023;28;20048;-41
2022/08/08 11:56:32;;;;;;;2.22;1.13;;;26.80;32.40;;;;;;5038981;28;20405;-45
2022/08/08 11:59:06;;;;;;;9.80;1.57;;;26.80;31.60;;;;;;5047797;28;20064;-49
2022/08/08 12:01:33;;;;;;;3.03;1.23;;;26.80;30.40;;;;;;5039164;28;20063;-41
2022/08/08 12:04:03;;;;;;;3.38;1.20;;;26.90;30.30;;;;;;5051741;28;20070;-45
2022/08/08 12:06:31;;;;;;;2.47;1.30;;;27.00;31.40;;;;;;5046839;28;20048;-45
2022/08/08 12:09:06;;;;;;;4.22;1.13;;;27.00;31.60;;;;;;5044865;28;20049;-45
2022/08/08 12:11:38;;;;;;;1.73;1.00;;;27.10;31.80;;;;;;5053824;28;20051;-44
2022/08/08 12:14:06;;;;;;;1.70;0.82;;;27.10;30.40;;;;;;5058810;28;20052;-42
2022/08/08 12:16:33;;;;;;;2.13;1.25;;;27.10;31.50;;;;;;5053037;28;20488;-45
2022/08/08 12:19:02;;;;;;;4.13;1.50;;;27.20;31.40;;;;;;5055328;28;20048;-46
2022/08/08 12:21:31;;;;;;;7.28;1.52;;;27.30;31.40;;;;;;5051142;28;20053;-42
2022/08/08 12:24:06;;;;;;;2.65;1.40;;;27.30;31.30;;;;;;5042104;28;20504;-46
2022/08/08 12:26:38;;;;;;;5.65;1.40;;;27.40;30.20;;;;;;5042289;28;20056;-44
2022/08/08 12:29:22;;;;;;;3.88;1.10;;;27.40;30.70;;;;;;5047359;28;20049;-46
2022/08/08 12:32:01;;;;;;;3.22;1.00;;;27.40;30.20;;;;;;5035641;28;20055;-43
2022/08/08 12:34:38;;;;;;;2.38;0.98;;;27.60;30.80;;;;;;5038061;28;20586;-43
2022/08/08 12:37:08;;;;;;;1.98;1.20;;;27.70;30.00;;;;;;5034544;28;20052;-43
2022/08/08 12:39:37;;;;;;;3.25;1.42;;;27.70;29.80;;;;;;5033636;28;21012;-43
2022/08/08 12:42:04;;;;;;;1.90;1.10;;;27.70;29.40;;;;;;5033372;28;20053;-43
2022/08/08 12:44:35;;;;;;;2.65;1.00;;;27.70;28.90;;;;;;5053389;28;20056;-42
2022/08/08 12:47:04;;;;;;;0.80;0.70;;;27.80;29.20;;;;;;5060594;28;20412;-44
2022/08/08 12:49:33;;;;;;;3.33;1.55;;;27.90;29.70;;;;;;5056303;28;20056;-45
2022/08/08 12:52:04;;;;;;;3.92;1.05;;;27.90;29.30;;;;;;5050542;28;20056;-46
2022/08/08 12:54:32;;;;;;;2.42;1.23;;;27.90;29.30;;;;;;5059834;28;20424;-47
2022/08/08 13:00:27;;;;;;;2.65;1.00;;;27.90;29.30;;;;;;5058903;28;20036;-47
2022/08/08 13:02:58;;;;;;;2.08;1.02;;;28.00;28.80;;;;;;5032215;28;20132;-43
2022/08/08 13:05:25;;;;;;;3.63;1.13;;;28.00;29.10;;;;;;5042476;28;20060;-44
2022/08/08 13:07:54;;;;;;;7.53;1.30;;;28.00;28.40;;;;;;5040274;28;20057;-42
2022/08/08 13:10:21;;;;;;;1.52;0.88;;;28.10;29.00;;;;;;5037001;28;20406;-45
2022/08/08 13:12:51;;;;;;;2.15;0.90;;;28.10;29.10;;;;;;5047809;28;20051;-43
2022/08/08 13:15:21;;;;;;;1.77;1.08;;;28.20;29.30;;;;;;5053411;28;20053;-43
2022/08/08 13:17:48;;;;;;;1.92;0.80;;;28.30;29.00;;;;;;5054189;28;20053;-45
2022/08/08 13:20:17;;;;;;;1.58;1.10;;;28.40;28.80;;;;;;5056561;28;20049;-49
2022/08/08 13:22:45;;;;;;;5.03;1.58;;;28.40;27.90;;;;;;5052083;28;20059;-43
2022/08/08 13:25:18;;;;;;;1.58;1.00;;;28.40;27.80;;;;;;5053884;28;20056;-47
2022/08/08 13:27:51;;;;;;;1.42;1.00;;;28.30;27.80;;;;;;5041809;28;20049;-45
2022/08/08 13:30:23;;;;;;;1.50;0.90;;;28.40;28.20;;;;;;5049446;28;20048;-42
2022/08/08 13:32:55;;;;;;;1.20;0.90;;;28.40;27.50;;;;;;5058429;28;20056;-46
2022/08/08 13:35:24;;;;;;;2.53;1.10;;;28.40;28.00;;;;;;5045272;28;20406;-43
2022/08/08 13:37:59;;;;;;;3.03;0.80;;;28.50;28.10;;;;;;5052748;28;20044;-44